Terminal Aerodrome Forecast
Issued by NWS Melbourne, FL

Current Version | Previous Version | Text Only | Print | Product List | Glossary On
Versions: 1 2 3 4 5 6 7 8 9 10 11 12 13 14 15 16
000
FTUS42 KMLB 031135
TAFDAB
TAF
KDAB 031135Z 0312/0412 00000KT P6SM VCSH FEW040 BKN100 OVC250
     FM031500 11007KT P6SM VCSH SCT020 SCT120 BKN200
     FM031800 08008KT P6SM SCT040 SCT250
     FM040000 06004KT P6SM SCT020=

USA.gov is the U.S. government's official web portal to all federal, state and local government web resources and services.